Hauptseite
METAR-TAF:

METAR-TAF

Flughäfen :

Düsseldorf, Deutschland

Düsseldorf Airport

Breite: 51-18N, Länge: 006-46E, Höhe: 45 m

Beobachtung

Neuester Wetterbericht von vor 20 Minuten, um 00:20 UTC
Wind 2 kt aus West/Südwest
Temperatur 3°C
Luftfeuchtigkeit 87%
Luftdruck 1015 hPa
Sichtweite 10 km oder mehr
keine Wolken unter 1500 m und keine Kumulonimbus oder Gewitterwolken

METAR: EDDL 280020Z 25002KT CAVOK 03/01 Q1015 NOSIG

Zeit: 02:40 (00:40 UTC)

Prognose

Neuester Wetterbericht von vor 1 Stunde und 40 Minuten, um 23:00 UTC
Gültige Prognose vom 28 um 00 UTC bis 29 um 06 UTC
Wind 2 kt aus Südwest
Sichtweite 10 km oder mehr
Aufgelockert bewölkt in der Höhe von 4000 ft
Übergehend zu
vom 28 um 05 UTC bis 28 um 08 UTC
Wind 7 kt aus Südwest
Übergehend zu
vom 28 um 15 UTC bis 28 um 17 UTC
Wind 4 kt aus West/Nordwest

TAF: EDDL 272300Z 2800/2906 22002KT 9999 SCT040 BECMG 2805/2808 23007KT BECMG 2815/2817 29004KT

Wetterbeobachtungen und Prognosen von mehr als 4000 Flughäfen (METAR und TAF Bericht).

Die verfügbaren Stationen werden durch gelbe und rote Markierungen auf der Karte dargestellt.

Führen Sie die Maus auf sie, um den Namen der Station zu sehen.

Darauf klicken, um die Beobachtung von Wetterbeobachtungen und Prognosen zu sehen.

Um die Karte zu ändern : klicken Sie auf den grünen Tasten mit einem schwarzen Kreuz Zum Vergrößern, auf den grünen Button mit einem Gedankenstrich zu verkleinern, oder auf die grünen Pfeile für benachbarte Karten.


METAR-TAF: